sensor_id;sensor_type;location;lat;lon;timestamp;P1;durP1;ratioP1;P2;durP2;ratioP2
11111;SDS011;5609;49.466;8.468;2022-09-30T00:01:18;5.57;;;4.90;;
11111;SDS011;5609;49.466;8.468;2022-09-30T00:03:47;7.67;;;5.43;;
11111;SDS011;5609;49.466;8.468;2022-09-30T00:06:14;5.57;;;4.93;;
11111;SDS011;5609;49.466;8.468;2022-09-30T00:08:41;5.60;;;4.63;;
11111;SDS011;5609;49.466;8.468;2022-09-30T00:11:10;6.17;;;5.03;;
11111;SDS011;5609;49.466;8.468;2022-09-30T00:13:38;7.10;;;5.47;;
11111;SDS011;5609;49.466;8.468;2022-09-30T00:16:05;5.27;;;4.77;;
11111;SDS011;5609;49.466;8.468;2022-09-30T00:18:32;6.30;;;5.60;;
11111;SDS011;5609;49.466;8.468;2022-09-30T00:21:02;6.90;;;5.50;;
11111;SDS011;5609;49.466;8.468;2022-09-30T00:23:29;5.93;;;5.33;;
11111;SDS011;5609;49.466;8.468;2022-09-30T00:25:56;6.10;;;5.40;;
11111;SDS011;5609;49.466;8.468;2022-09-30T00:28:24;7.10;;;5.73;;
11111;SDS011;5609;49.466;8.468;2022-09-30T00:30:51;6.73;;;5.60;;
11111;SDS011;5609;49.466;8.468;2022-09-30T00:33:19;8.03;;;5.70;;
11111;SDS011;5609;49.466;8.468;2022-09-30T00:35:46;7.27;;;5.50;;
11111;SDS011;5609;49.466;8.468;2022-09-30T00:38:14;6.17;;;5.40;;
11111;SDS011;5609;49.466;8.468;2022-09-30T00:40:43;6.50;;;5.27;;
11111;SDS011;5609;49.466;8.468;2022-09-30T00:43:11;5.67;;;5.17;;
11111;SDS011;5609;49.466;8.468;2022-09-30T00:45:41;7.13;;;5.60;;
11111;SDS011;5609;49.466;8.468;2022-09-30T00:48:10;6.10;;;5.47;;
11111;SDS011;5609;49.466;8.468;2022-09-30T00:50:38;7.20;;;5.87;;
11111;SDS011;5609;49.466;8.468;2022-09-30T00:53:10;6.37;;;5.60;;
11111;SDS011;5609;49.466;8.468;2022-09-30T00:55:50;6.80;;;5.13;;
11111;SDS011;5609;49.466;8.468;2022-09-30T00:58:21;7.00;;;5.60;;
11111;SDS011;5609;49.466;8.468;2022-09-30T01:00:49;6.60;;;5.70;;
11111;SDS011;5609;49.466;8.468;2022-09-30T01:03:17;7.50;;;5.90;;
11111;SDS011;5609;49.466;8.468;2022-09-30T01:05:46;6.30;;;5.67;;
11111;SDS011;5609;49.466;8.468;2022-09-30T01:08:14;6.50;;;5.80;;
11111;SDS011;5609;49.466;8.468;2022-09-30T01:10:42;6.33;;;5.63;;
11111;SDS011;5609;49.466;8.468;2022-09-30T01:13:11;7.07;;;5.80;;
11111;SDS011;5609;49.466;8.468;2022-09-30T01:15:43;8.07;;;6.00;;
11111;SDS011;5609;49.466;8.468;2022-09-30T01:18:17;7.43;;;5.40;;
11111;SDS011;5609;49.466;8.468;2022-09-30T01:20:51;6.40;;;5.47;;
11111;SDS011;5609;49.466;8.468;2022-09-30T01:23:25;6.53;;;5.50;;
11111;SDS011;5609;49.466;8.468;2022-09-30T01:26:02;6.60;;;5.67;;
11111;SDS011;5609;49.466;8.468;2022-09-30T01:28:44;7.30;;;5.93;;
11111;SDS011;5609;49.466;8.468;2022-09-30T01:31:22;5.93;;;5.40;;
11111;SDS011;5609;49.466;8.468;2022-09-30T01:33:56;7.97;;;5.63;;
11111;SDS011;5609;49.466;8.468;2022-09-30T01:36:28;6.80;;;5.80;;
11111;SDS011;5609;49.466;8.468;2022-09-30T01:39:01;6.73;;;5.70;;
11111;SDS011;5609;49.466;8.468;2022-09-30T01:41:32;6.10;;;5.50;;
11111;SDS011;5609;49.466;8.468;2022-09-30T01:44:08;8.07;;;6.53;;
11111;SDS011;5609;49.466;8.468;2022-09-30T01:46:40;6.53;;;5.90;;
11111;SDS011;5609;49.466;8.468;2022-09-30T01:49:10;6.17;;;5.57;;
11111;SDS011;5609;49.466;8.468;2022-09-30T01:51:40;6.50;;;5.90;;
11111;SDS011;5609;49.466;8.468;2022-09-30T01:54:10;8.23;;;5.93;;
11111;SDS011;5609;49.466;8.468;2022-09-30T01:56:40;6.90;;;5.63;;
11111;SDS011;5609;49.466;8.468;2022-09-30T01:59:08;9.50;;;6.33;;
11111;SDS011;5609;49.466;8.468;2022-09-30T02:01:38;7.17;;;5.50;;
11111;SDS011;5609;49.466;8.468;2022-09-30T02:04:07;7.20;;;5.97;;
11111;SDS011;5609;49.466;8.468;2022-09-30T02:06:36;7.97;;;6.17;;
11111;SDS011;5609;49.466;8.468;2022-09-30T02:09:04;7.40;;;5.60;;
11111;SDS011;5609;49.466;8.468;2022-09-30T02:11:33;7.80;;;5.87;;
11111;SDS011;5609;49.466;8.468;2022-09-30T02:14:01;6.33;;;5.60;;
11111;SDS011;5609;49.466;8.468;2022-09-30T02:16:31;6.20;;;5.60;;
11111;SDS011;5609;49.466;8.468;2022-09-30T02:19:02;5.97;;;5.37;;
11111;SDS011;5609;49.466;8.468;2022-09-30T02:21:33;7.10;;;5.50;;
11111;SDS011;5609;49.466;8.468;2022-09-30T02:24:02;9.03;;;5.50;;
11111;SDS011;5609;49.466;8.468;2022-09-30T02:26:31;6.10;;;5.43;;
11111;SDS011;5609;49.466;8.468;2022-09-30T02:29:01;7.03;;;5.43;;
11111;SDS011;5609;49.466;8.468;2022-09-30T02:31:30;6.23;;;5.17;;
11111;SDS011;5609;49.466;8.468;2022-09-30T02:33:58;6.33;;;5.10;;
11111;SDS011;5609;49.466;8.468;2022-09-30T02:36:28;5.43;;;4.90;;
11111;SDS011;5609;49.466;8.468;2022-09-30T02:39:00;6.10;;;4.97;;
11111;SDS011;5609;49.466;8.468;2022-09-30T02:41:28;5.80;;;5.10;;
11111;SDS011;5609;49.466;8.468;2022-09-30T02:43:57;7.33;;;5.30;;
11111;SDS011;5609;49.466;8.468;2022-09-30T02:46:26;6.17;;;4.77;;
11111;SDS011;5609;49.466;8.468;2022-09-30T02:48:58;5.40;;;4.90;;
11111;SDS011;5609;49.466;8.468;2022-09-30T02:51:29;6.27;;;5.30;;
11111;SDS011;5609;49.466;8.468;2022-09-30T02:54:05;5.73;;;5.13;;
11111;SDS011;5609;49.466;8.468;2022-09-30T02:56:36;6.07;;;4.97;;
11111;SDS011;5609;49.466;8.468;2022-09-30T02:59:09;6.03;;;4.97;;
11111;SDS011;5609;49.466;8.468;2022-09-30T03:01:36;6.60;;;5.33;;
11111;SDS011;5609;49.466;8.468;2022-09-30T03:04:06;6.83;;;5.60;;
11111;SDS011;5609;49.466;8.468;2022-09-30T03:06:34;6.47;;;5.87;;
11111;SDS011;5609;49.466;8.468;2022-09-30T03:09:03;6.77;;;6.00;;
11111;SDS011;5609;49.466;8.468;2022-09-30T03:11:30;7.33;;;6.57;;
11111;SDS011;5609;49.466;8.468;2022-09-30T03:14:02;6.67;;;6.00;;
11111;SDS011;5609;49.466;8.468;2022-09-30T03:16:38;6.97;;;6.37;;
11111;SDS011;5609;49.466;8.468;2022-09-30T03:19:13;8.10;;;6.60;;
11111;SDS011;5609;49.466;8.468;2022-09-30T03:21:47;7.37;;;6.67;;
11111;SDS011;5609;49.466;8.468;2022-09-30T03:24:26;7.37;;;6.47;;
11111;SDS011;5609;49.466;8.468;2022-09-30T03:26:59;8.77;;;6.47;;
11111;SDS011;5609;49.466;8.468;2022-09-30T03:29:31;7.60;;;6.80;;
11111;SDS011;5609;49.466;8.468;2022-09-30T03:32:04;7.10;;;6.40;;
11111;SDS011;5609;49.466;8.468;2022-09-30T03:34:36;8.33;;;6.10;;
11111;SDS011;5609;49.466;8.468;2022-09-30T03:37:06;7.37;;;6.57;;
11111;SDS011;5609;49.466;8.468;2022-09-30T03:39:41;7.73;;;6.73;;
11111;SDS011;5609;49.466;8.468;2022-09-30T03:42:12;7.37;;;6.67;;
11111;SDS011;5609;49.466;8.468;2022-09-30T03:44:43;8.80;;;6.90;;
11111;SDS011;5609;49.466;8.468;2022-09-30T03:47:11;8.73;;;6.77;;
11111;SDS011;5609;49.466;8.468;2022-09-30T03:49:41;7.13;;;6.43;;
11111;SDS011;5609;49.466;8.468;2022-09-30T03:52:09;8.83;;;7.50;;
11111;SDS011;5609;49.466;8.468;2022-09-30T03:54:44;9.30;;;8.13;;
11111;SDS011;5609;49.466;8.468;2022-09-30T03:57:11;7.83;;;6.70;;
11111;SDS011;5609;49.466;8.468;2022-09-30T03:59:39;8.40;;;6.83;;
11111;SDS011;5609;49.466;8.468;2022-09-30T04:02:06;7.87;;;7.17;;
11111;SDS011;5609;49.466;8.468;2022-09-30T04:04:37;7.30;;;6.40;;
11111;SDS011;5609;49.466;8.468;2022-09-30T04:07:04;6.80;;;6.10;;
11111;SDS011;5609;49.466;8.468;2022-09-30T04:09:32;7.60;;;6.50;;
11111;SDS011;5609;49.466;8.468;2022-09-30T04:12:00;7.17;;;6.57;;
11111;SDS011;5609;49.466;8.468;2022-09-30T04:14:27;8.73;;;7.03;;
11111;SDS011;5609;49.466;8.468;2022-09-30T04:16:54;7.37;;;6.47;;
11111;SDS011;5609;49.466;8.468;2022-09-30T04:19:21;9.70;;;6.60;;
11111;SDS011;5609;49.466;8.468;2022-09-30T04:21:49;7.70;;;6.73;;
11111;SDS011;5609;49.466;8.468;2022-09-30T04:24:16;8.53;;;6.80;;
11111;SDS011;5609;49.466;8.468;2022-09-30T04:26:44;6.77;;;6.07;;
11111;SDS011;5609;49.466;8.468;2022-09-30T04:29:12;6.93;;;6.23;;
11111;SDS011;5609;49.466;8.468;2022-09-30T04:31:39;9.53;;;7.27;;
11111;SDS011;5609;49.466;8.468;2022-09-30T04:34:06;7.63;;;6.43;;
11111;SDS011;5609;49.466;8.468;2022-09-30T04:36:35;8.87;;;6.63;;
11111;SDS011;5609;49.466;8.468;2022-09-30T04:39:02;8.30;;;7.50;;
11111;SDS011;5609;49.466;8.468;2022-09-30T04:41:29;9.03;;;7.43;;
11111;SDS011;5609;49.466;8.468;2022-09-30T04:43:58;11.37;;;8.30;;
11111;SDS011;5609;49.466;8.468;2022-09-30T04:46:31;11.17;;;8.50;;
11111;SDS011;5609;49.466;8.468;2022-09-30T04:49:01;10.23;;;7.93;;
11111;SDS011;5609;49.466;8.468;2022-09-30T04:51:28;10.30;;;8.33;;
11111;SDS011;5609;49.466;8.468;2022-09-30T04:53:55;10.80;;;8.17;;
11111;SDS011;5609;49.466;8.468;2022-09-30T04:56:22;10.50;;;8.70;;
11111;SDS011;5609;49.466;8.468;2022-09-30T04:58:50;9.57;;;8.43;;
11111;SDS011;5609;49.466;8.468;2022-09-30T05:01:17;10.07;;;8.33;;
11111;SDS011;5609;49.466;8.468;2022-09-30T05:03:46;9.90;;;8.00;;
11111;SDS011;5609;49.466;8.468;2022-09-30T05:06:15;9.80;;;8.90;;
11111;SDS011;5609;49.466;8.468;2022-09-30T05:08:42;11.13;;;8.40;;
11111;SDS011;5609;49.466;8.468;2022-09-30T05:11:09;9.37;;;8.43;;
11111;SDS011;5609;49.466;8.468;2022-09-30T05:13:39;10.40;;;8.63;;
11111;SDS011;5609;49.466;8.468;2022-09-30T05:16:06;9.90;;;8.90;;
11111;SDS011;5609;49.466;8.468;2022-09-30T05:18:34;9.80;;;8.80;;
11111;SDS011;5609;49.466;8.468;2022-09-30T05:21:03;10.77;;;8.83;;
11111;SDS011;5609;49.466;8.468;2022-09-30T05:23:31;9.93;;;8.73;;
11111;SDS011;5609;49.466;8.468;2022-09-30T05:25:58;11.17;;;9.00;;
11111;SDS011;5609;49.466;8.468;2022-09-30T05:28:26;10.03;;;9.03;;
11111;SDS011;5609;49.466;8.468;2022-09-30T05:30:55;12.57;;;9.80;;
11111;SDS011;5609;49.466;8.468;2022-09-30T05:33:24;11.77;;;10.30;;
11111;SDS011;5609;49.466;8.468;2022-09-30T05:35:51;13.03;;;9.80;;
11111;SDS011;5609;49.466;8.468;2022-09-30T05:38:20;12.50;;;9.90;;
11111;SDS011;5609;49.466;8.468;2022-09-30T05:40:47;13.53;;;10.57;;
11111;SDS011;5609;49.466;8.468;2022-09-30T05:43:14;11.60;;;10.00;;
11111;SDS011;5609;49.466;8.468;2022-09-30T05:45:51;13.90;;;9.67;;
11111;SDS011;5609;49.466;8.468;2022-09-30T05:48:18;10.97;;;9.83;;
11111;SDS011;5609;49.466;8.468;2022-09-30T05:50:45;11.83;;;9.43;;
11111;SDS011;5609;49.466;8.468;2022-09-30T05:53:14;14.10;;;10.47;;
11111;SDS011;5609;49.466;8.468;2022-09-30T05:55:45;13.53;;;10.10;;
11111;SDS011;5609;49.466;8.468;2022-09-30T05:58:12;14.07;;;10.67;;
11111;SDS011;5609;49.466;8.468;2022-09-30T06:00:40;11.87;;;10.50;;
11111;SDS011;5609;49.466;8.468;2022-09-30T06:03:07;11.53;;;10.33;;
11111;SDS011;5609;49.466;8.468;2022-09-30T06:05:34;12.20;;;10.70;;
11111;SDS011;5609;49.466;8.468;2022-09-30T06:08:01;13.13;;;10.77;;
11111;SDS011;5609;49.466;8.468;2022-09-30T06:10:31;13.50;;;12.00;;
11111;SDS011;5609;49.466;8.468;2022-09-30T06:13:00;12.93;;;10.37;;
11111;SDS011;5609;49.466;8.468;2022-09-30T06:15:28;11.73;;;10.53;;
11111;SDS011;5609;49.466;8.468;2022-09-30T06:17:55;12.97;;;10.50;;
11111;SDS011;5609;49.466;8.468;2022-09-30T06:20:22;13.40;;;11.00;;
11111;SDS011;5609;49.466;8.468;2022-09-30T06:22:49;12.03;;;10.73;;
11111;SDS011;5609;49.466;8.468;2022-09-30T06:25:16;13.13;;;11.60;;
11111;SDS011;5609;49.466;8.468;2022-09-30T06:27:44;12.60;;;11.00;;
11111;SDS011;5609;49.466;8.468;2022-09-30T06:30:13;15.80;;;11.87;;
11111;SDS011;5609;49.466;8.468;2022-09-30T06:32:40;12.63;;;11.23;;
11111;SDS011;5609;49.466;8.468;2022-09-30T06:35:08;14.13;;;11.30;;
11111;SDS011;5609;49.466;8.468;2022-09-30T06:37:37;15.93;;;12.30;;
11111;SDS011;5609;49.466;8.468;2022-09-30T06:40:06;17.40;;;12.33;;
11111;SDS011;5609;49.466;8.468;2022-09-30T06:42:33;11.83;;;6.40;;
11111;SDS011;5609;49.466;8.468;2022-09-30T06:45:00;8.47;;;6.07;;
11111;SDS011;5609;49.466;8.468;2022-09-30T06:47:29;12.77;;;7.63;;
11111;SDS011;5609;49.466;8.468;2022-09-30T06:49:57;10.23;;;7.77;;
11111;SDS011;5609;49.466;8.468;2022-09-30T06:52:24;9.37;;;7.83;;
11111;SDS011;5609;49.466;8.468;2022-09-30T06:54:51;9.33;;;7.77;;
11111;SDS011;5609;49.466;8.468;2022-09-30T06:57:20;9.03;;;7.60;;
11111;SDS011;5609;49.466;8.468;2022-09-30T06:59:49;8.53;;;7.63;;
11111;SDS011;5609;49.466;8.468;2022-09-30T07:02:16;8.27;;;7.37;;
11111;SDS011;5609;49.466;8.468;2022-09-30T07:04:44;8.70;;;7.13;;
11111;SDS011;5609;49.466;8.468;2022-09-30T07:07:12;7.80;;;7.00;;
11111;SDS011;5609;49.466;8.468;2022-09-30T07:09:39;8.63;;;7.63;;
11111;SDS011;5609;49.466;8.468;2022-09-30T07:12:07;9.43;;;8.00;;
11111;SDS011;5609;49.466;8.468;2022-09-30T07:14:34;12.73;;;9.80;;
11111;SDS011;5609;49.466;8.468;2022-09-30T07:17:01;10.77;;;8.70;;
11111;SDS011;5609;49.466;8.468;2022-09-30T07:19:29;13.07;;;11.13;;
11111;SDS011;5609;49.466;8.468;2022-09-30T07:21:59;11.53;;;9.80;;
11111;SDS011;5609;49.466;8.468;2022-09-30T07:24:46;12.80;;;11.33;;
11111;SDS011;5609;49.466;8.468;2022-09-30T07:27:13;12.27;;;10.83;;
11111;SDS011;5609;49.466;8.468;2022-09-30T07:29:41;17.43;;;15.53;;
11111;SDS011;5609;49.466;8.468;2022-09-30T07:32:08;15.90;;;14.27;;
11111;SDS011;5609;49.466;8.468;2022-09-30T07:34:35;15.13;;;12.50;;
11111;SDS011;5609;49.466;8.468;2022-09-30T07:37:04;13.70;;;12.27;;
11111;SDS011;5609;49.466;8.468;2022-09-30T07:39:31;15.43;;;12.73;;
11111;SDS011;5609;49.466;8.468;2022-09-30T07:41:58;15.13;;;13.47;;
11111;SDS011;5609;49.466;8.468;2022-09-30T07:44:26;12.37;;;10.20;;
11111;SDS011;5609;49.466;8.468;2022-09-30T07:46:53;13.57;;;11.27;;
11111;SDS011;5609;49.466;8.468;2022-09-30T07:49:21;15.57;;;13.17;;
11111;SDS011;5609;49.466;8.468;2022-09-30T07:51:49;15.10;;;12.40;;
11111;SDS011;5609;49.466;8.468;2022-09-30T07:54:19;14.70;;;11.60;;
11111;SDS011;5609;49.466;8.468;2022-09-30T07:56:46;13.90;;;12.40;;
11111;SDS011;5609;49.466;8.468;2022-09-30T07:59:14;15.90;;;14.23;;
11111;SDS011;5609;49.466;8.468;2022-09-30T08:01:41;19.43;;;17.43;;
11111;SDS011;5609;49.466;8.468;2022-09-30T08:04:09;19.90;;;17.70;;
11111;SDS011;5609;49.466;8.468;2022-09-30T08:06:36;19.23;;;17.07;;
11111;SDS011;5609;49.466;8.468;2022-09-30T08:09:04;19.50;;;17.40;;
11111;SDS011;5609;49.466;8.468;2022-09-30T08:11:33;26.70;;;21.47;;
11111;SDS011;5609;49.466;8.468;2022-09-30T08:14:00;21.60;;;19.27;;
11111;SDS011;5609;49.466;8.468;2022-09-30T08:16:27;21.43;;;19.20;;
11111;SDS011;5609;49.466;8.468;2022-09-30T08:18:54;27.57;;;23.40;;
11111;SDS011;5609;49.466;8.468;2022-09-30T08:21:22;19.00;;;17.00;;
11111;SDS011;5609;49.466;8.468;2022-09-30T08:23:49;21.27;;;17.60;;
11111;SDS011;5609;49.466;8.468;2022-09-30T08:26:16;21.60;;;19.30;;
11111;SDS011;5609;49.466;8.468;2022-09-30T08:28:45;17.93;;;16.03;;
11111;SDS011;5609;49.466;8.468;2022-09-30T08:31:13;20.73;;;16.67;;
11111;SDS011;5609;49.466;8.468;2022-09-30T08:33:41;19.83;;;16.27;;
11111;SDS011;5609;49.466;8.468;2022-09-30T08:36:09;18.03;;;16.17;;
11111;SDS011;5609;49.466;8.468;2022-09-30T08:38:36;19.07;;;17.07;;
11111;SDS011;5609;49.466;8.468;2022-09-30T08:41:10;19.20;;;17.10;;
11111;SDS011;5609;49.466;8.468;2022-09-30T08:43:43;20.27;;;18.07;;
11111;SDS011;5609;49.466;8.468;2022-09-30T08:46:14;20.43;;;17.83;;
11111;SDS011;5609;49.466;8.468;2022-09-30T08:48:45;19.50;;;17.47;;
11111;SDS011;5609;49.466;8.468;2022-09-30T08:51:17;18.30;;;15.13;;
11111;SDS011;5609;49.466;8.468;2022-09-30T08:53:51;20.03;;;18.13;;
11111;SDS011;5609;49.466;8.468;2022-09-30T08:56:21;19.40;;;17.40;;
11111;SDS011;5609;49.466;8.468;2022-09-30T08:58:50;24.00;;;19.03;;
11111;SDS011;5609;49.466;8.468;2022-09-30T09:01:22;20.43;;;16.40;;
11111;SDS011;5609;49.466;8.468;2022-09-30T09:03:51;16.93;;;15.13;;
11111;SDS011;5609;49.466;8.468;2022-09-30T09:06:19;18.23;;;16.33;;
11111;SDS011;5609;49.466;8.468;2022-09-30T09:08:52;17.80;;;15.90;;
11111;SDS011;5609;49.466;8.468;2022-09-30T09:11:21;18.30;;;15.97;;
11111;SDS011;5609;49.466;8.468;2022-09-30T09:13:57;15.80;;;14.20;;
11111;SDS011;5609;49.466;8.468;2022-09-30T09:16:28;16.97;;;15.23;;
11111;SDS011;5609;49.466;8.468;2022-09-30T09:18:58;19.43;;;16.37;;
11111;SDS011;5609;49.466;8.468;2022-09-30T09:21:41;18.87;;;16.93;;
11111;SDS011;5609;49.466;8.468;2022-09-30T09:24:12;17.17;;;15.37;;
11111;SDS011;5609;49.466;8.468;2022-09-30T09:26:40;18.73;;;16.87;;
11111;SDS011;5609;49.466;8.468;2022-09-30T09:29:10;19.07;;;16.70;;
11111;SDS011;5609;49.466;8.468;2022-09-30T09:31:42;16.03;;;14.33;;
11111;SDS011;5609;49.466;8.468;2022-09-30T09:34:12;17.87;;;15.97;;
11111;SDS011;5609;49.466;8.468;2022-09-30T09:36:52;17.93;;;16.00;;
11111;SDS011;5609;49.466;8.468;2022-09-30T09:39:26;18.20;;;16.33;;
11111;SDS011;5609;49.466;8.468;2022-09-30T09:41:58;22.10;;;19.77;;
11111;SDS011;5609;49.466;8.468;2022-09-30T09:44:29;22.33;;;19.90;;
11111;SDS011;5609;49.466;8.468;2022-09-30T09:47:00;19.53;;;17.00;;
11111;SDS011;5609;49.466;8.468;2022-09-30T09:49:32;20.07;;;18.07;;
11111;SDS011;5609;49.466;8.468;2022-09-30T09:52:09;23.27;;;19.23;;
11111;SDS011;5609;49.466;8.468;2022-09-30T09:54:40;19.53;;;17.43;;
11111;SDS011;5609;49.466;8.468;2022-09-30T09:57:07;20.27;;;18.10;;
11111;SDS011;5609;49.466;8.468;2022-09-30T09:59:35;20.20;;;17.63;;
11111;SDS011;5609;49.466;8.468;2022-09-30T10:02:15;16.30;;;14.63;;
11111;SDS011;5609;49.466;8.468;2022-09-30T10:04:47;16.17;;;14.57;;
11111;SDS011;5609;49.466;8.468;2022-09-30T10:07:23;17.07;;;15.23;;
11111;SDS011;5609;49.466;8.468;2022-09-30T10:09:51;17.93;;;16.07;;
11111;SDS011;5609;49.466;8.468;2022-09-30T10:12:31;17.40;;;15.70;;
11111;SDS011;5609;49.466;8.468;2022-09-30T10:15:10;16.80;;;15.10;;
11111;SDS011;5609;49.466;8.468;2022-09-30T10:17:40;16.13;;;14.53;;
11111;SDS011;5609;49.466;8.468;2022-09-30T10:20:16;14.73;;;13.23;;
11111;SDS011;5609;49.466;8.468;2022-09-30T10:22:44;15.17;;;13.57;;
11111;SDS011;5609;49.466;8.468;2022-09-30T10:25:21;13.33;;;12.03;;
11111;SDS011;5609;49.466;8.468;2022-09-30T10:27:52;11.57;;;10.33;;
11111;SDS011;5609;49.466;8.468;2022-09-30T10:33:22;11.50;;;10.40;;
11111;SDS011;5609;49.466;8.468;2022-09-30T10:36:01;11.23;;;9.93;;
11111;SDS011;5609;49.466;8.468;2022-09-30T10:38:28;11.53;;;9.80;;
11111;SDS011;5609;49.466;8.468;2022-09-30T10:40:58;10.70;;;9.70;;
11111;SDS011;5609;49.466;8.468;2022-09-30T10:43:26;11.43;;;10.30;;
11111;SDS011;5609;49.466;8.468;2022-09-30T10:45:55;14.03;;;11.10;;
11111;SDS011;5609;49.466;8.468;2022-09-30T10:48:28;11.53;;;10.33;;
11111;SDS011;5609;49.466;8.468;2022-09-30T10:50:57;11.83;;;10.40;;
11111;SDS011;5609;49.466;8.468;2022-09-30T10:53:25;12.13;;;10.30;;
11111;SDS011;5609;49.466;8.468;2022-09-30T10:55:53;13.73;;;11.43;;
11111;SDS011;5609;49.466;8.468;2022-09-30T10:58:25;12.13;;;10.43;;
11111;SDS011;5609;49.466;8.468;2022-09-30T11:00:55;11.23;;;9.23;;
11111;SDS011;5609;49.466;8.468;2022-09-30T11:03:24;12.40;;;10.47;;
11111;SDS011;5609;49.466;8.468;2022-09-30T11:05:54;10.87;;;9.10;;
11111;SDS011;5609;49.466;8.468;2022-09-30T11:08:23;11.80;;;9.57;;
11111;SDS011;5609;49.466;8.468;2022-09-30T11:10:55;12.20;;;8.73;;
11111;SDS011;5609;49.466;8.468;2022-09-30T11:13:26;9.30;;;8.00;;
11111;SDS011;5609;49.466;8.468;2022-09-30T11:15:59;8.87;;;7.47;;
11111;SDS011;5609;49.466;8.468;2022-09-30T11:18:28;10.27;;;7.93;;
11111;SDS011;5609;49.466;8.468;2022-09-30T11:20:59;8.60;;;7.60;;
11111;SDS011;5609;49.466;8.468;2022-09-30T11:23:28;10.17;;;7.47;;
11111;SDS011;5609;49.466;8.468;2022-09-30T11:25:57;10.73;;;7.37;;
11111;SDS011;5609;49.466;8.468;2022-09-30T11:28:31;7.73;;;6.40;;
11111;SDS011;5609;49.466;8.468;2022-09-30T11:31:03;6.93;;;6.23;;
11111;SDS011;5609;49.466;8.468;2022-09-30T11:33:35;7.60;;;6.60;;
11111;SDS011;5609;49.466;8.468;2022-09-30T11:36:06;7.17;;;6.20;;
11111;SDS011;5609;49.466;8.468;2022-09-30T11:38:46;7.30;;;6.23;;
11111;SDS011;5609;49.466;8.468;2022-09-30T11:41:16;8.20;;;6.40;;
11111;SDS011;5609;49.466;8.468;2022-09-30T11:43:50;7.70;;;5.80;;
11111;SDS011;5609;49.466;8.468;2022-09-30T11:46:28;6.43;;;5.47;;
11111;SDS011;5609;49.466;8.468;2022-09-30T11:49:02;7.90;;;6.07;;
11111;SDS011;5609;49.466;8.468;2022-09-30T11:51:35;8.87;;;5.83;;
11111;SDS011;5609;49.466;8.468;2022-09-30T11:54:08;5.90;;;4.97;;
11111;SDS011;5609;49.466;8.468;2022-09-30T11:56:41;7.00;;;4.60;;
11111;SDS011;5609;49.466;8.468;2022-09-30T11:59:13;8.47;;;4.57;;
11111;SDS011;5609;49.466;8.468;2022-09-30T12:01:41;7.43;;;5.73;;
11111;SDS011;5609;49.466;8.468;2022-09-30T12:04:12;8.33;;;6.00;;
11111;SDS011;5609;49.466;8.468;2022-09-30T12:06:42;5.80;;;5.20;;
11111;SDS011;5609;49.466;8.468;2022-09-30T12:09:12;7.00;;;5.47;;
11111;SDS011;5609;49.466;8.468;2022-09-30T12:11:42;5.40;;;4.60;;
11111;SDS011;5609;49.466;8.468;2022-09-30T12:14:12;5.17;;;4.47;;
11111;SDS011;5609;49.466;8.468;2022-09-30T12:16:41;4.47;;;3.80;;
11111;SDS011;5609;49.466;8.468;2022-09-30T12:19:11;5.00;;;3.87;;
11111;SDS011;5609;49.466;8.468;2022-09-30T12:21:40;6.07;;;4.13;;
11111;SDS011;5609;49.466;8.468;2022-09-30T12:24:12;5.43;;;3.70;;
11111;SDS011;5609;49.466;8.468;2022-09-30T12:26:41;4.03;;;3.63;;
11111;SDS011;5609;49.466;8.468;2022-09-30T12:29:11;6.67;;;3.93;;
11111;SDS011;5609;49.466;8.468;2022-09-30T12:34:47;4.47;;;3.97;;
11111;SDS011;5609;49.466;8.468;2022-09-30T12:37:21;5.00;;;3.87;;
11111;SDS011;5609;49.466;8.468;2022-09-30T12:40:09;5.13;;;3.77;;
11111;SDS011;5609;49.466;8.468;2022-09-30T12:42:43;5.03;;;3.73;;
11111;SDS011;5609;49.466;8.468;2022-09-30T12:45:23;5.23;;;3.30;;
11111;SDS011;5609;49.466;8.468;2022-09-30T12:47:57;3.63;;;2.90;;
11111;SDS011;5609;49.466;8.468;2022-09-30T12:50:25;4.00;;;2.70;;
11111;SDS011;5609;49.466;8.468;2022-09-30T12:52:53;4.67;;;3.40;;
11111;SDS011;5609;49.466;8.468;2022-09-30T12:55:23;4.57;;;3.20;;
11111;SDS011;5609;49.466;8.468;2022-09-30T12:57:53;7.37;;;3.83;;
11111;SDS011;5609;49.466;8.468;2022-09-30T13:00:21;5.50;;;3.77;;
11111;SDS011;5609;49.466;8.468;2022-09-30T13:02:52;6.07;;;4.00;;
11111;SDS011;5609;49.466;8.468;2022-09-30T13:08:07;3.67;;;3.33;;
11111;SDS011;5609;49.466;8.468;2022-09-30T13:10:44;5.70;;;3.43;;
11111;SDS011;5609;49.466;8.468;2022-09-30T13:13:18;4.57;;;3.90;;
11111;SDS011;5609;49.466;8.468;2022-09-30T13:15:48;6.50;;;3.90;;
11111;SDS011;5609;49.466;8.468;2022-09-30T13:21:15;4.00;;;3.60;;
11111;SDS011;5609;49.466;8.468;2022-09-30T13:23:44;4.63;;;3.70;;
11111;SDS011;5609;49.466;8.468;2022-09-30T13:34:24;5.43;;;4.20;;
11111;SDS011;5609;49.466;8.468;2022-09-30T13:36:56;4.93;;;3.37;;
11111;SDS011;5609;49.466;8.468;2022-09-30T13:39:24;4.00;;;3.57;;
11111;SDS011;5609;49.466;8.468;2022-09-30T13:42:00;4.73;;;3.23;;
11111;SDS011;5609;49.466;8.468;2022-09-30T13:44:31;4.70;;;3.60;;
11111;SDS011;5609;49.466;8.468;2022-09-30T13:47:01;6.17;;;3.70;;
11111;SDS011;5609;49.466;8.468;2022-09-30T13:49:35;4.93;;;4.00;;
11111;SDS011;5609;49.466;8.468;2022-09-30T13:52:06;3.97;;;3.47;;
11111;SDS011;5609;49.466;8.468;2022-09-30T13:54:34;7.03;;;4.10;;
11111;SDS011;5609;49.466;8.468;2022-09-30T13:57:04;4.93;;;3.90;;
11111;SDS011;5609;49.466;8.468;2022-09-30T13:59:38;4.83;;;3.73;;
11111;SDS011;5609;49.466;8.468;2022-09-30T14:02:21;5.87;;;4.10;;
11111;SDS011;5609;49.466;8.468;2022-09-30T14:05:04;4.10;;;3.70;;
11111;SDS011;5609;49.466;8.468;2022-09-30T14:07:36;5.17;;;4.00;;
11111;SDS011;5609;49.466;8.468;2022-09-30T14:10:10;6.30;;;3.87;;
11111;SDS011;5609;49.466;8.468;2022-09-30T14:12:46;4.73;;;4.13;;
11111;SDS011;5609;49.466;8.468;2022-09-30T14:15:32;5.47;;;4.43;;
11111;SDS011;5609;49.466;8.468;2022-09-30T14:18:15;5.40;;;4.40;;
11111;SDS011;5609;49.466;8.468;2022-09-30T14:20:52;5.53;;;4.13;;
11111;SDS011;5609;49.466;8.468;2022-09-30T14:23:25;6.73;;;4.57;;
11111;SDS011;5609;49.466;8.468;2022-09-30T14:25:55;6.10;;;4.13;;
11111;SDS011;5609;49.466;8.468;2022-09-30T14:28:25;4.97;;;3.80;;
11111;SDS011;5609;49.466;8.468;2022-09-30T14:30:58;5.73;;;3.37;;
11111;SDS011;5609;49.466;8.468;2022-09-30T14:33:37;4.97;;;3.17;;
11111;SDS011;5609;49.466;8.468;2022-09-30T14:36:09;5.87;;;3.47;;
11111;SDS011;5609;49.466;8.468;2022-09-30T14:38:37;3.67;;;3.00;;
11111;SDS011;5609;49.466;8.468;2022-09-30T14:41:05;4.87;;;3.23;;
11111;SDS011;5609;49.466;8.468;2022-09-30T14:43:34;3.93;;;3.53;;
11111;SDS011;5609;49.466;8.468;2022-09-30T14:46:03;6.37;;;3.03;;
11111;SDS011;5609;49.466;8.468;2022-09-30T14:48:32;3.80;;;2.93;;
11111;SDS011;5609;49.466;8.468;2022-09-30T14:51:01;4.07;;;2.87;;
11111;SDS011;5609;49.466;8.468;2022-09-30T14:53:32;3.27;;;2.60;;
11111;SDS011;5609;49.466;8.468;2022-09-30T14:55:59;3.23;;;2.60;;
11111;SDS011;5609;49.466;8.468;2022-09-30T14:58:27;4.57;;;2.80;;
11111;SDS011;5609;49.466;8.468;2022-09-30T15:00:56;6.20;;;2.87;;
11111;SDS011;5609;49.466;8.468;2022-09-30T15:03:24;4.07;;;2.50;;
11111;SDS011;5609;49.466;8.468;2022-09-30T15:05:51;5.80;;;2.67;;
11111;SDS011;5609;49.466;8.468;2022-09-30T15:08:19;5.10;;;2.67;;
11111;SDS011;5609;49.466;8.468;2022-09-30T15:10:48;3.70;;;2.30;;
11111;SDS011;5609;49.466;8.468;2022-09-30T15:13:16;2.73;;;2.23;;
11111;SDS011;5609;49.466;8.468;2022-09-30T15:15:44;2.97;;;2.10;;
11111;SDS011;5609;49.466;8.468;2022-09-30T15:18:21;2.47;;;2.00;;
11111;SDS011;5609;49.466;8.468;2022-09-30T15:20:49;5.33;;;2.30;;
11111;SDS011;5609;49.466;8.468;2022-09-30T15:23:20;3.07;;;2.20;;
11111;SDS011;5609;49.466;8.468;2022-09-30T15:25:50;2.73;;;1.97;;
11111;SDS011;5609;49.466;8.468;2022-09-30T15:28:17;6.23;;;2.30;;
11111;SDS011;5609;49.466;8.468;2022-09-30T15:30:44;6.10;;;2.20;;